Charlotte, NC - CLT

This way to the Queen City

Charlotte Douglas International Airport boasts a top 15 ranking in the United States' busiest airport list and is home to one of American's busiest hubs. The former US Airways mega hub, it use to also be Airbus central with the majority of the AA mainline fleet there consisting of the Airbus narrow and wide bodies serving destinations around the globe.

CLT Based Pilots: 14   Miles to CLT: 216400
Flights from CLT: 374   Total Hours: 1224.65
Routes using CLT: 2436   From CLT: 616.18
Total Miles: 434061   Hours To CLT: 608.47
Miles from CLT: 217661   CLT Charts: Click Here
VATSIM METAR: KCLT 012152Z 21005KT 10SM FEW120 BKN180 BKN240 17/04 A3010 RMK AO2 SLP191 T01670044
 
         
View More: Click Here
   

 

Earn Your Wings

Interested in joining our CLT hub? Hover for more!

Your journey starts here. Your journey starts now. A whole new experience is at your fingertips.

Like what you see and ready to join the team?

A rewarding and memorable virtual airline experience awaits!